Time,TemperatureF,DewpointF,PressureIn,WindDirection,WindDirectionDegrees,WindSpeedMPH,WindSpeedGustMPH,Humidity,HourlyPrecipIn,Conditions,Clouds,dailyrainin,SoftwareType,DateUTC
2013-12-12 00:22:00,29.0,-99.9,-100.00,NW,308,1.0,0.0,-999,0.00,,,0.00,,2013-12-12 06:22:00,
2013-12-12 00:53:00,29.0,-99.9,30.56,NNW,343,4.0,4.0,-999,0.00,,,0.00,,2013-12-12 06:53:00,
2013-12-12 01:22:00,29.0,-99.9,30.56,NNW,338,4.0,4.0,-999,0.00,,,0.00,,2013-12-12 07:22:00,
2013-12-12 01:52:00,29.0,-99.9,30.55,North,350,3.0,3.0,-999,0.00,,,0.00,,2013-12-12 07:52:00,
2013-12-12 02:22:00,28.0,-99.9,30.55,NNW,339,0.0,0.0,-999,0.00,,,0.00,,2013-12-12 08:22:00,
2013-12-12 02:53:00,26.0,-99.9,30.56,NNW,339,0.0,0.0,-999,0.00,,,0.00,,2013-12-12 08:53:00,
2013-12-12 03:22:00,24.0,-99.9,30.55,NNW,339,0.0,0.0,-999,0.00,,,0.00,,2013-12-12 09:22:00,
2013-12-12 03:54:00,25.0,-99.9,30.55,NNW,339,0.0,0.0,-999,0.00,,,0.00,,2013-12-12 09:54:00,
2013-12-12 04:23:00,25.0,-99.9,30.54,NNW,339,0.0,0.0,-999,0.00,,,0.00,,2013-12-12 10:23:00,
2013-12-12 04:53:00,24.0,-99.9,30.54,NNW,339,0.0,0.0,-999,0.00,,,0.00,,2013-12-12 10:53:00,
2013-12-12 05:23:00,24.0,-99.9,30.55,NNW,339,0.0,0.0,-999,0.00,,,0.00,,2013-12-12 11:23:00,
2013-12-12 05:53:00,22.0,-99.9,30.55,NNW,339,0.0,0.0,-999,0.00,,,0.00,,2013-12-12 11:53:00,
2013-12-12 06:22:00,22.0,-99.9,30.55,NNW,339,0.0,0.0,-999,0.00,,,0.00,,2013-12-12 12:22:00,
2013-12-12 06:42:00,22.0,-99.9,30.55,NNW,339,0.0,0.0,-999,0.00,,,0.00,,2013-12-12 12:42:00,
2013-12-12 06:52:00,22.0,-99.9,30.55,NNW,339,0.0,0.0,-999,0.00,,,0.00,,2013-12-12 12:52:00,
2013-12-12 07:22:00,22.0,-99.9,30.55,NNW,339,0.0,0.0,-999,0.00,,,0.00,,2013-12-12 13:22:00,
2013-12-12 07:42:00,21.0,-99.9,30.56,SE,131,2.0,2.0,-999,0.00,,,0.00,,2013-12-12 13:42:00,
2013-12-12 07:52:00,20.0,-99.9,30.57,SE,143,1.0,1.0,-999,0.00,,,0.00,,2013-12-12 13:52:00,
2013-12-12 08:22:00,23.0,-99.9,30.57,West,274,0.0,0.0,-999,0.00,,,0.00,,2013-12-12 14:22:00,
2013-12-12 08:52:00,29.0,-99.9,30.55,SW,229,1.0,2.0,-999,0.00,,,0.00,,2013-12-12 14:52:00,
2013-12-12 09:54:00,36.0,-99.9,30.58,SW,224,0.0,0.0,-999,0.00,,,0.00,,2013-12-12 15:54:00,
2013-12-12 10:23:00,36.0,-99.9,30.56,East,98,2.0,2.0,-999,0.00,,,0.00,,2013-12-12 16:23:00,
2013-12-12 10:53:00,38.0,-99.9,30.56,SSE,149,0.0,0.0,-999,0.00,,,0.00,,2013-12-12 16:53:00,
2013-12-12 11:23:00,36.0,-99.9,30.53,East,96,4.0,4.0,-999,0.00,,,0.00,,2013-12-12 17:23:00,
2013-12-12 12:22:00,42.0,-99.9,30.50,SSE,149,0.0,2.0,-999,0.00,,,0.00,,2013-12-12 18:22:00,
2013-12-12 12:52:00,43.0,-99.9,30.48,SW,215,2.0,3.0,-999,0.00,,,0.00,,2013-12-12 18:52:00,
2013-12-12 13:22:00,42.0,-99.9,30.44,SE,139,2.0,3.0,-999,0.00,,,0.00,,2013-12-12 19:22:00,
2013-12-12 13:52:00,41.0,-99.9,30.42,South,170,4.0,4.0,-999,0.00,,,0.00,,2013-12-12 19:52:00,
2013-12-12 14:22:00,43.0,-99.9,30.40,SE,132,1.0,0.0,-999,0.00,,,0.00,,2013-12-12 20:22:00,
2013-12-12 14:52:00,43.0,-99.9,30.38,ESE,110,5.0,5.0,-999,0.00,,,0.00,,2013-12-12 20:52:00,
2013-12-12 15:22:00,43.0,-99.9,30.38,ESE,105,2.0,2.0,-999,0.00,,,0.00,,2013-12-12 21:22:00,
2013-12-12 15:53:00,42.0,-99.9,30.36,ESE,117,2.0,0.0,-999,0.00,,,0.00,,2013-12-12 21:53:00,
2013-12-12 16:23:00,43.0,-99.9,30.35,North,353,1.0,2.0,-999,0.00,,,0.00,,2013-12-12 22:23:00,
2013-12-12 16:53:00,43.0,-99.9,30.34,ENE,68,0.0,4.0,-999,0.00,,,0.00,,2013-12-12 22:53:00,
2013-12-12 17:22:00,43.0,-99.9,30.35,NNE,15,0.0,0.0,-999,0.00,,,0.00,,2013-12-12 23:22:00,
2013-12-12 17:53:00,41.0,-99.9,30.34,NNE,15,0.0,0.0,-999,0.00,,,0.00,,2013-12-12 23:53:00,
2013-12-12 18:22:00,40.0,-99.9,30.32,ENE,70,3.0,3.0,-999,0.00,,,0.00,,2013-12-13 00:22:00,
2013-12-12 18:53:00,40.0,-99.9,30.32,NE,39,0.0,0.0,-999,0.00,,,0.00,,2013-12-13 00:53:00,
2013-12-12 19:22:00,40.0,-99.9,30.31,NE,44,2.0,2.0,-999,0.00,,,0.00,,2013-12-13 01:22:00,
2013-12-12 19:53:00,39.0,-99.9,30.30,NE,34,2.0,3.0,-999,0.00,,,0.00,,2013-12-13 01:53:00,
2013-12-12 20:22:00,39.0,-99.9,30.30,NE,44,0.0,0.0,-999,0.00,,,0.00,,2013-12-13 02:22:00,
2013-12-12 20:52:00,38.0,-99.9,30.29,NE,44,0.0,0.0,-999,0.00,,,0.00,,2013-12-13 02:52:00,
2013-12-12 21:22:00,38.0,-99.9,30.28,SE,129,3.0,4.0,-999,0.00,,,0.00,,2013-12-13 03:22:00,
2013-12-12 21:53:00,38.0,-99.9,30.28,ESE,117,2.0,3.0,-999,0.00,,,0.00,,2013-12-13 03:53:00,
2013-12-12 22:23:00,39.0,-99.9,30.24,East,97,4.0,4.0,-999,0.00,,,0.00,,2013-12-13 04:23:00,
2013-12-12 22:53:00,40.0,-99.9,30.25,SE,136,3.0,3.0,-999,0.00,,,0.00,,2013-12-13 04:53:00,
2013-12-12 23:23:00,40.0,-99.9,30.25,SSE,156,4.0,5.0,-999,0.00,,,0.00,,2013-12-13 05:23:00,
2013-12-12 23:53:00,41.0,-99.9,30.24,SSE,165,5.0,5.0,-999,0.00,,,0.00,,2013-12-13 05:53:00,